Time,TemperatureF,DewpointF,PressureIn,WindDirection,WindDirectionDegrees,WindSpeedMPH,WindSpeedGustMPH,Humidity,HourlyPrecipIn,Conditions,Clouds,dailyrainin,SoftwareType,DateUTC
2013-03-30 00:02:00,60.0,40.0,29.87,North,0,0.0,0.0,47,0.00,,,0.00,,2013-03-30 07:02:00,
2013-03-30 00:12:00,60.0,40.0,29.87,North,0,0.0,0.0,47,0.00,,,0.00,,2013-03-30 07:12:00,
2013-03-30 00:22:00,60.0,40.0,29.87,North,0,0.0,0.0,47,0.00,,,0.00,,2013-03-30 07:22:00,
2013-03-30 00:32:00,60.0,40.0,29.87,North,0,0.0,0.0,47,0.00,,,0.00,,2013-03-30 07:32:00,
2013-03-30 00:52:00,59.0,41.0,29.87,North,0,0.0,1.0,51,0.00,,,0.00,,2013-03-30 07:52:00,
2013-03-30 01:01:00,59.0,40.0,29.86,North,0,0.0,0.0,50,0.00,,,0.00,,2013-03-30 08:01:00,
2013-03-30 01:12:00,59.0,40.0,29.86,North,0,0.0,0.0,50,0.00,,,0.00,,2013-03-30 08:12:00,
2013-03-30 01:21:00,59.0,40.0,29.85,North,0,0.0,0.0,50,0.00,,,0.00,,2013-03-30 08:21:00,
2013-03-30 01:32:00,59.0,40.0,29.85,North,0,0.0,0.0,50,0.00,,,0.00,,2013-03-30 08:32:00,
2013-03-30 01:42:00,59.0,40.0,29.85,North,0,0.0,0.0,50,0.00,,,0.00,,2013-03-30 08:42:00,
2013-03-30 01:52:00,59.0,40.0,29.86,North,0,0.0,0.0,50,0.00,,,0.00,,2013-03-30 08:52:00,
2013-03-30 02:01:00,58.0,41.0,29.85,North,0,0.0,1.0,54,0.00,,,0.00,,2013-03-30 09:01:00,
2013-03-30 02:12:00,57.0,45.0,29.86,South,171,3.0,6.0,63,0.00,,,0.00,,2013-03-30 09:12:00,
2013-03-30 02:22:00,57.0,45.0,29.86,South,171,3.0,6.0,63,0.00,,,0.00,,2013-03-30 09:22:00,
2013-03-30 02:33:00,57.0,45.0,29.86,South,171,3.0,6.0,63,0.00,,,0.00,,2013-03-30 09:33:00,
2013-03-30 02:42:00,57.0,45.0,29.86,South,171,3.0,6.0,63,0.00,,,0.00,,2013-03-30 09:42:00,
2013-03-30 02:53:00,55.0,48.0,29.86,SSE,163,2.0,7.0,76,0.00,,,0.00,,2013-03-30 09:53:00,
2013-03-30 03:02:00,55.0,48.0,29.85,SSE,156,7.0,9.0,77,0.00,,,0.00,,2013-03-30 10:02:00,
2013-03-30 03:12:00,55.0,48.0,29.85,SSE,156,7.0,9.0,77,0.00,,,0.00,,2013-03-30 10:12:00,
2013-03-30 03:22:00,54.0,46.0,29.85,North,0,0.0,5.0,74,0.00,,,0.00,,2013-03-30 10:22:00,
2013-03-30 03:32:00,54.0,46.0,29.85,North,0,0.0,5.0,74,0.00,,,0.00,,2013-03-30 10:32:00,
2013-03-30 03:42:00,54.0,46.0,29.85,North,0,0.0,5.0,74,0.00,,,0.00,,2013-03-30 10:42:00,
2013-03-30 03:52:00,55.0,45.0,29.85,SSE,154,2.0,5.0,69,0.00,,,0.00,,2013-03-30 10:52:00,
2013-03-30 04:02:00,59.0,45.0,29.85,North,0,0.0,5.0,59,0.00,,,0.00,,2013-03-30 11:02:00,
2013-03-30 04:22:00,58.0,41.0,29.84,NE,42,6.0,8.0,53,0.00,,,0.00,,2013-03-30 11:22:00,
2013-03-30 04:32:00,58.0,41.0,29.84,NE,42,6.0,8.0,53,0.00,,,0.00,,2013-03-30 11:32:00,
2013-03-30 04:42:00,58.0,41.0,29.84,NE,42,6.0,8.0,53,0.00,,,0.00,,2013-03-30 11:42:00,
2013-03-30 04:52:00,58.0,39.0,29.84,North,0,0.0,5.0,50,0.00,,,0.00,,2013-03-30 11:52:00,
2013-03-30 05:02:00,59.0,40.0,29.83,North,0,0.0,7.0,49,0.00,,,0.00,,2013-03-30 12:02:00,
2013-03-30 05:22:00,59.0,41.0,29.83,NW,320,5.0,7.0,51,0.00,,,0.00,,2013-03-30 12:22:00,
2013-03-30 05:53:00,55.0,44.0,29.83,North,0,0.0,5.0,66,0.00,,,0.00,,2013-03-30 12:53:00,
2013-03-30 06:01:00,55.0,44.0,29.83,North,0,0.0,5.0,66,0.00,,,0.00,,2013-03-30 13:01:00,
2013-03-30 06:12:00,55.0,44.0,29.83,North,0,0.0,5.0,66,0.00,,,0.00,,2013-03-30 13:12:00,
2013-03-30 06:22:00,56.0,43.0,29.84,North,0,0.0,5.0,62,0.00,,,0.00,,2013-03-30 13:22:00,
2013-03-30 06:32:00,56.0,43.0,29.84,North,0,0.0,5.0,62,0.00,,,0.00,,2013-03-30 13:32:00,
2013-03-30 06:43:00,56.0,43.0,29.84,North,0,0.0,5.0,62,0.00,,,0.00,,2013-03-30 13:43:00,
2013-03-30 06:52:00,55.0,45.0,29.84,North,0,0.0,2.0,68,0.00,,,0.00,,2013-03-30 13:52:00,
2013-03-30 07:02:00,55.0,45.0,29.85,SE,142,3.0,4.0,70,0.00,,,0.00,,2013-03-30 14:02:00,
2013-03-30 07:11:00,55.0,45.0,29.85,SE,142,3.0,4.0,70,0.00,,,0.00,,2013-03-30 14:11:00,
2013-03-30 07:22:00,55.0,44.0,29.85,SSE,167,4.0,6.0,67,0.00,,,0.00,,2013-03-30 14:22:00,
2013-03-30 07:32:00,55.0,44.0,29.85,SSE,167,4.0,6.0,67,0.00,,,0.00,,2013-03-30 14:32:00,
2013-03-30 07:41:00,55.0,44.0,29.85,SSE,167,4.0,6.0,67,0.00,,,0.00,,2013-03-30 14:41:00,
2013-03-30 07:52:00,55.0,43.0,29.85,NW,304,6.0,7.0,65,0.00,,,0.00,,2013-03-30 14:52:00,
2013-03-30 08:02:00,56.0,44.0,29.86,NW,305,2.0,5.0,63,0.00,,,0.00,,2013-03-30 15:02:00,
2013-03-30 08:12:00,56.0,44.0,29.86,NW,305,2.0,5.0,63,0.00,,,0.00,,2013-03-30 15:12:00,
2013-03-30 08:21:00,57.0,44.0,29.87,North,0,0.0,4.0,61,0.00,,,0.00,,2013-03-30 15:21:00,
2013-03-30 08:33:00,57.0,44.0,29.87,North,0,0.0,4.0,61,0.00,,,0.00,,2013-03-30 15:33:00,
2013-03-30 08:52:00,59.0,45.0,29.87,North,0,0.0,0.0,59,0.00,,,0.00,,2013-03-30 15:52:00,
2013-03-30 09:02:00,59.0,45.0,29.87,SSW,199,1.0,5.0,60,0.00,,,0.00,,2013-03-30 16:02:00,
2013-03-30 09:12:00,60.0,45.0,29.88,North,0,0.0,1.0,58,0.00,,,0.00,,2013-03-30 16:12:00,
2013-03-30 09:22:00,60.0,45.0,29.88,North,0,0.0,1.0,58,0.00,,,0.00,,2013-03-30 16:22:00,
2013-03-30 09:32:00,60.0,45.0,29.88,North,0,0.0,1.0,58,0.00,,,0.00,,2013-03-30 16:32:00,
2013-03-30 09:42:00,60.0,45.0,29.88,North,0,0.0,1.0,58,0.00,,,0.00,,2013-03-30 16:42:00,
2013-03-30 09:52:00,59.0,49.0,29.87,North,0,0.0,4.0,69,0.00,,,0.00,,2013-03-30 16:52:00,
2013-03-30 10:01:00,60.0,50.0,29.88,North,0,0.0,5.0,69,0.00,,,0.00,,2013-03-30 17:01:00,
2013-03-30 10:12:00,60.0,50.0,29.88,North,0,0.0,5.0,69,0.00,,,0.00,,2013-03-30 17:12:00,
2013-03-30 10:22:00,61.0,51.0,29.88,SSE,166,1.0,5.0,70,0.00,,,0.00,,2013-03-30 17:22:00,
2013-03-30 10:32:00,61.0,51.0,29.88,SSE,166,1.0,5.0,70,0.00,,,0.00,,2013-03-30 17:32:00,
2013-03-30 10:42:00,61.0,51.0,29.88,SSE,166,1.0,5.0,70,0.00,,,0.00,,2013-03-30 17:42:00,
2013-03-30 10:52:00,57.0,50.0,29.88,SSE,165,4.0,9.0,78,0.00,,,0.00,,2013-03-30 17:52:00,
2013-03-30 11:01:00,57.0,49.0,29.89,SSE,154,1.0,5.0,74,0.00,,,0.00,,2013-03-30 18:01:00,
2013-03-30 11:12:00,58.0,51.0,29.90,SSE,157,3.0,8.0,78,0.00,,,0.00,,2013-03-30 18:12:00,
2013-03-30 11:21:00,58.0,51.0,29.90,SSE,157,3.0,8.0,78,0.00,,,0.00,,2013-03-30 18:21:00,
2013-03-30 11:32:00,58.0,51.0,29.90,SSE,157,3.0,8.0,78,0.00,,,0.00,,2013-03-30 18:32:00,
2013-03-30 11:42:00,58.0,51.0,29.90,SSE,157,3.0,8.0,78,0.00,,,0.00,,2013-03-30 18:42:00,
2013-03-30 11:53:00,57.0,50.0,29.91,SSE,161,4.0,8.0,78,0.00,,,0.00,,2013-03-30 18:53:00,
2013-03-30 12:02:00,57.0,49.0,29.91,SSE,161,6.0,9.0,74,0.00,,,0.00,,2013-03-30 19:02:00,
2013-03-30 12:12:00,57.0,49.0,29.91,SSE,161,6.0,9.0,74,0.00,,,0.00,,2013-03-30 19:12:00,
2013-03-30 12:21:00,58.0,50.0,29.91,SSE,166,5.0,8.0,75,0.00,,,0.00,,2013-03-30 19:21:00,
2013-03-30 12:32:00,58.0,50.0,29.91,SSE,166,5.0,8.0,75,0.00,,,0.00,,2013-03-30 19:32:00,
2013-03-30 12:41:00,58.0,50.0,29.91,SSE,166,5.0,8.0,75,0.00,,,0.00,,2013-03-30 19:41:00,
2013-03-30 12:52:00,60.0,51.0,29.90,SSE,164,2.0,8.0,72,0.00,,,0.00,,2013-03-30 19:52:00,
2013-03-30 13:01:00,61.0,50.0,29.89,SSE,165,3.0,8.0,68,0.00,,,0.00,,2013-03-30 20:01:00,
2013-03-30 13:12:00,61.0,50.0,29.89,SSE,165,3.0,8.0,68,0.00,,,0.00,,2013-03-30 20:12:00,
2013-03-30 13:21:00,63.0,51.0,29.89,SSE,164,1.0,8.0,65,0.00,,,0.00,,2013-03-30 20:21:00,
2013-03-30 13:32:00,63.0,51.0,29.89,SSE,164,1.0,8.0,65,0.00,,,0.00,,2013-03-30 20:32:00,
2013-03-30 13:42:00,63.0,51.0,29.89,SSE,164,1.0,8.0,65,0.00,,,0.00,,2013-03-30 20:42:00,
2013-03-30 13:52:00,62.0,49.0,29.88,SSE,156,4.0,9.0,62,0.00,,,0.00,,2013-03-30 20:52:00,
2013-03-30 14:01:00,62.0,49.0,29.88,SSE,156,4.0,9.0,62,0.00,,,0.00,,2013-03-30 21:01:00,
2013-03-30 14:12:00,62.0,49.0,29.88,SSE,156,4.0,9.0,62,0.00,,,0.00,,2013-03-30 21:12:00,
2013-03-30 14:22:00,62.0,49.0,29.88,SSE,167,5.0,9.0,63,0.00,,,0.00,,2013-03-30 21:22:00,
2013-03-30 14:34:00,62.0,49.0,29.88,SSE,167,5.0,9.0,63,0.00,,,0.00,,2013-03-30 21:34:00,
2013-03-30 14:43:00,62.0,49.0,29.88,SSE,167,5.0,9.0,63,0.00,,,0.00,,2013-03-30 21:43:00,
2013-03-30 14:53:00,60.0,49.0,29.87,SSE,167,6.0,10.0,67,0.00,,,0.00,,2013-03-30 21:53:00,
2013-03-30 15:02:00,59.0,48.0,29.86,South,177,9.0,12.0,68,0.00,,,0.00,,2013-03-30 22:02:00,
2013-03-30 15:12:00,59.0,48.0,29.86,South,177,9.0,12.0,68,0.00,,,0.00,,2013-03-30 22:12:00,
2013-03-30 15:23:00,57.0,48.0,29.86,South,178,7.0,13.0,73,0.00,,,0.00,,2013-03-30 22:23:00,
2013-03-30 15:32:00,57.0,48.0,29.86,South,178,7.0,13.0,73,0.00,,,0.00,,2013-03-30 22:32:00,
2013-03-30 15:42:00,57.0,48.0,29.86,South,178,7.0,13.0,73,0.00,,,0.00,,2013-03-30 22:42:00,
2013-03-30 15:53:00,58.0,47.0,29.85,South,174,4.0,11.0,68,0.00,,,0.00,,2013-03-30 22:53:00,
2013-03-30 16:02:00,59.0,47.0,29.85,South,178,4.0,9.0,64,0.00,,,0.00,,2013-03-30 23:02:00,
2013-03-30 16:12:00,59.0,47.0,29.85,South,178,4.0,9.0,64,0.00,,,0.00,,2013-03-30 23:12:00,
2013-03-30 16:22:00,59.0,46.0,29.85,South,174,4.0,6.0,62,0.00,,,0.00,,2013-03-30 23:22:00,
2013-03-30 16:32:00,59.0,46.0,29.85,South,174,4.0,6.0,62,0.00,,,0.00,,2013-03-30 23:32:00,
2013-03-30 16:42:00,59.0,46.0,29.85,South,174,4.0,6.0,62,0.00,,,0.00,,2013-03-30 23:42:00,
2013-03-30 16:52:00,59.0,46.0,29.85,South,174,4.0,6.0,62,0.00,,,0.00,,2013-03-30 23:52:00,
2013-03-30 17:02:00,59.0,46.0,29.85,South,174,4.0,6.0,62,0.00,,,0.00,,2013-03-31 00:02:00,
2013-03-30 17:22:00,60.0,39.0,29.85,SW,219,1.0,10.0,46,0.00,,,0.00,,2013-03-31 00:22:00,
2013-03-30 17:32:00,60.0,39.0,29.85,SW,219,1.0,10.0,46,0.00,,,0.00,,2013-03-31 00:32:00,
2013-03-30 17:43:00,60.0,39.0,29.85,SW,219,1.0,10.0,46,0.00,,,0.00,,2013-03-31 00:43:00,
2013-03-30 17:52:00,63.0,40.0,29.85,North,0,0.0,1.0,43,0.00,,,0.00,,2013-03-31 00:52:00,
2013-03-30 18:01:00,62.0,41.0,29.85,North,0,0.0,1.0,46,0.00,,,0.00,,2013-03-31 01:01:00,
2013-03-30 18:12:00,62.0,41.0,29.85,North,0,0.0,1.0,46,0.00,,,0.00,,2013-03-31 01:12:00,
2013-03-30 18:22:00,63.0,33.0,29.84,SW,234,1.0,6.0,33,0.00,,,0.00,,2013-03-31 01:22:00,
2013-03-30 18:52:00,58.0,41.0,29.84,South,185,4.0,6.0,54,0.00,,,0.00,,2013-03-31 01:52:00,
2013-03-30 19:01:00,55.0,35.0,29.84,SSW,206,11.0,15.0,46,0.00,,,0.00,,2013-03-31 02:01:00,
2013-03-30 19:12:00,55.0,35.0,29.84,SSW,206,11.0,15.0,46,0.00,,,0.00,,2013-03-31 02:12:00,
2013-03-30 19:21:00,57.0,30.0,29.84,SW,221,7.0,12.0,35,0.00,,,0.00,,2013-03-31 02:21:00,
2013-03-30 19:32:00,57.0,30.0,29.84,SW,221,7.0,12.0,35,0.00,,,0.00,,2013-03-31 02:32:00,
2013-03-30 20:01:00,55.0,33.0,29.85,WSW,254,10.0,13.0,43,0.00,,,0.00,,2013-03-31 03:01:00,
2013-03-30 20:22:00,56.0,36.0,29.85,WSW,248,7.0,10.0,46,0.00,,,0.00,,2013-03-31 03:22:00,
2013-03-30 20:32:00,56.0,36.0,29.85,WSW,248,7.0,10.0,46,0.00,,,0.00,,2013-03-31 03:32:00,
2013-03-30 20:53:00,56.0,38.0,29.86,WSW,256,8.0,11.0,51,0.00,,,0.00,,2013-03-31 03:53:00,
2013-03-30 21:02:00,55.0,-99.9,29.86,WSW,246,9.0,10.0,58,0.00,,,0.00,,2013-03-31 04:02:00,
2013-03-30 21:12:00,55.0,41.0,29.86,WSW,246,9.0,10.0,58,0.00,,,0.00,,2013-03-31 04:12:00,
2013-03-30 21:22:00,54.0,43.0,29.87,WSW,258,10.0,13.0,66,0.00,,,0.00,,2013-03-31 04:22:00,
2013-03-30 21:32:00,54.0,43.0,29.87,WSW,258,10.0,13.0,66,0.00,,,0.00,,2013-03-31 04:32:00,
2013-03-30 21:42:00,54.0,43.0,29.87,WSW,258,10.0,13.0,66,0.00,,,0.00,,2013-03-31 04:42:00,
2013-03-30 21:52:00,55.0,43.0,29.87,WSW,238,4.0,12.0,65,0.00,,,0.00,,2013-03-31 04:52:00,
2013-03-30 22:02:00,54.0,44.0,29.88,WSW,254,7.0,12.0,69,0.00,,,0.00,,2013-03-31 05:02:00,
2013-03-30 22:12:00,54.0,44.0,29.88,WSW,254,7.0,12.0,69,0.00,,,0.00,,2013-03-31 05:12:00,
2013-03-30 22:22:00,53.0,42.0,29.88,West,273,9.0,14.0,66,0.00,,,0.00,,2013-03-31 05:22:00,
2013-03-30 22:32:00,53.0,42.0,29.88,West,273,9.0,14.0,66,0.00,,,0.00,,2013-03-31 05:32:00,
2013-03-30 22:41:00,53.0,42.0,29.88,West,273,9.0,14.0,66,0.00,,,0.00,,2013-03-31 05:41:00,
2013-03-30 22:53:00,53.0,42.0,29.88,WNW,284,8.0,12.0,67,0.00,,,0.00,,2013-03-31 05:53:00,
2013-03-30 23:01:00,54.0,42.0,29.89,North,0,0.0,5.0,64,0.00,,,0.00,,2013-03-31 06:01:00,
2013-03-30 23:11:00,54.0,42.0,29.89,North,0,0.0,5.0,64,0.00,,,0.00,,2013-03-31 06:11:00,
2013-03-30 23:22:00,54.0,44.0,29.88,West,266,3.0,10.0,68,0.00,,,0.00,,2013-03-31 06:22:00,
2013-03-30 23:32:00,54.0,44.0,29.88,West,266,3.0,10.0,68,0.00,,,0.00,,2013-03-31 06:32:00,
2013-03-30 23:42:00,54.0,44.0,29.88,West,266,3.0,10.0,68,0.00,,,0.00,,2013-03-31 06:42:00,
2013-03-30 23:52:00,53.0,45.0,29.89,West,261,6.0,13.0,75,0.00,,,0.00,,2013-03-31 06:52:00,